Información del aeropuerto LEZL

Información de pista
Pista 09 Longitud 11024 ft Anchura 148 ft
Elevación 83 ft Umbral 0 ft Rumbo 90
Pista 27 Longitud 11024 ft Anchura 148 ft
Elevación 111 ft Umbral 0 ft Rumbo 270
Frecuencias del aeropuerto
Tipo APP Nombre APP Frecuencia 120 MHZ
Tipo ATIS Nombre ATIS Frecuencia 118.175 MHZ
Tipo GND Nombre GND Frecuencia 121.7 MHZ
Tipo TWR Nombre TWR Frecuencia 118.1 MHZ
Radioayudas del aeropuerto
Tipo NDB Nombre Sevilla Frecuencia 420 KHZ
Tipo VOR-DME Nombre Sevilla Frecuencia 113700 KHZ
Información meteorológica del aeropuerto y NOTAM
ADDS - METARS form results

(0350 UTC 23 January 2022)
Data provider http://aviationweather.gov/metar/data/
 
METAR text: LEZL 230330Z AUTO 05011KT CAVOK 07/04 Q1022
Conditions at: LEZL (SEVILLA (CIV/MIL, ES) observed 0330 UTC 23 January 2022
Temperature: 7.0°C (45°F)
Dewpoint: 4.0°C (39°F) [RH = 81%]
Pressure (altimeter): 30.18 inches Hg (1022.0 mb)
Winds: from the NE (50 degrees) at 13 MPH (11 knots; 5.7 m/s)
Visibility: 6 or more miles (10+ km)
Ceiling: ceiling and visibility are OK
Clouds: unknown
Weather: no significant weather observed at this time

METAR text: LEZL 230300Z AUTO 05008KT CAVOK 07/05 Q1022
Conditions at: LEZL (SEVILLA (CIV/MIL, ES) observed 0300 UTC 23 January 2022
Temperature: 7.0°C (45°F)
Dewpoint: 5.0°C (41°F) [RH = 87%]
Pressure (altimeter): 30.18 inches Hg (1022.0 mb)
Winds: from the NE (50 degrees) at 9 MPH (8 knots; 4.1 m/s)
Visibility: 6 or more miles (10+ km)
Ceiling: ceiling and visibility are OK
Clouds: unknown
Weather: no significant weather observed at this time

Forecast for: LEZL (SEVILLA (CIV/MIL, ES)
Text: TAF LEZL 230200Z 2303/2403 05008KT CAVOK TX18/2315Z TN06/2307Z
Forecast period: 0300 UTC 23 January 2022 to 0300 UTC 24 January 2022
Forecast type: FROM: standard forecast or significant change
Winds: from the NE (50 degrees) at 9 MPH (8 knots; 4.1 m/s)
Visibility: 6 or more miles (10+ km)
Ceiling: unknown
Clouds: missing
Weather: no significant weather forecast for this period